This is the latest recevied weather packets stored in our database for station/object WBGG. If no packets are shown the sender has not sent any weather packets the latest 1 day(s).
| Time | Temp. | Humidity | Pressure | Rain* | Wind** | Luminosity | Snow |
|---|---|---|---|---|---|---|---|
| 1778053190 | 32.78° C | 66% | 1006 hPa | - | 2.68 m/s, 350° | - | - |
| 1778051990 | 32.78° C | 66% | 1005 hPa | - | 2.68 m/s, 350° | - | - |
| 1778051416 | 32.78° C | 66% | 1006 hPa | - | 2.68 m/s, 340° | - | - |
| 1778049591 | 31.67° C | 66% | 1006 hPa | - | 3.58 m/s, 340° | - | - |
| 1778047808 | 30.56° C | 74% | 1007 hPa | - | 3.58 m/s, 340° | - | - |
| 1778045990 | 31.67° C | 70% | 1007 hPa | - | 2.24 m/s, 0° | - | - |
| 1778044207 | 32.78° C | 62% | 1007 hPa | - | 0.89 m/s, 0° | - | - |
| 1778042390 | 32.78° C | 66% | 1008 hPa | - | 0.45 m/s, 0° | - | - |
| 1778040609 | 31.67° C | 66% | 1008 hPa | - | 1.34 m/s, 0° | - | - |
| 1778038790 | 31.67° C | 66% | 1009 hPa | - | 1.34 m/s, 0° | - | - |
| 1778037014 | 30.56° C | 70% | 1009 hPa | - | 1.34 m/s, 130° | - | - |
| 1778035191 | 30.56° C | 74% | 1009 hPa | - | 1.34 m/s, 0° | - | - |
| 1778033407 | 30° C | 74% | 1010 hPa | - | 0.89 m/s, 0° | - | - |
| 1778031589 | 28.89° C | 79% | 1010 hPa | - | 1.34 m/s, 120° | - | - |
| 1778029808 | 27.78° C | 83% | 1010 hPa | - | 1.34 m/s, 130° | - | - |
| 1778027990 | 26.67° C | 88% | 1009 hPa | - | 0.89 m/s, 0° | - | - |
| 1778026209 | 25.56° C | 88% | 1009 hPa | - | 0.89 m/s, 0° | - | - |
| 1778024389 | 25° C | 94% | 1009 hPa | - | 0.89 m/s, 0° | - | - |
| 1778022607 | 25° C | 94% | 1008 hPa | - | 0 m/s | - | - |
| 1778020792 | 23.89° C | 10% | - | - | 0 m/s | - | - |
| 1778019015 | 23.89° C | 10% | - | - | 0 m/s | - | - |
| 1778017189 | 23.89° C | 10% | - | - | 0 m/s | - | - |
| 1778015408 | 25° C | 94% | 1008 hPa | - | 0.89 m/s, 0° | - | - |
| 1778013592 | 25° C | 94% | 1007 hPa | - | 1.34 m/s, 240° | - | - |
| 1778011808 | 25° C | 94% | 1008 hPa | - | 0.45 m/s, 0° | - | - |
* Rain since midnight (hover to see other rain measurements)
** Current wind speed in m/s (hover to see current wind gust speed)